sensor_id;sensor_type;location;lat;lon;timestamp;temperature;humidity
3790;DHT22;1910;49.042;9.028;2022-09-03T00:02:59;18.50;86.50
3790;DHT22;1910;49.042;9.028;2022-09-03T00:08:43;18.50;84.90
3790;DHT22;1910;49.042;9.028;2022-09-03T00:14:16;18.50;85.20
3790;DHT22;1910;49.042;9.028;2022-09-03T00:16:48;18.50;85.80
3790;DHT22;1910;49.042;9.028;2022-09-03T00:19:19;18.40;85.70
3790;DHT22;1910;49.042;9.028;2022-09-03T00:21:57;18.40;85.50
3790;DHT22;1910;49.042;9.028;2022-09-03T00:24:27;18.50;85.70
3790;DHT22;1910;49.042;9.028;2022-09-03T00:26:58;18.60;84.40
3790;DHT22;1910;49.042;9.028;2022-09-03T00:29:35;18.50;85.20
3790;DHT22;1910;49.042;9.028;2022-09-03T00:32:10;18.50;85.20
3790;DHT22;1910;49.042;9.028;2022-09-03T00:34:40;18.50;85.40
3790;DHT22;1910;49.042;9.028;2022-09-03T00:37:08;18.50;85.50
3790;DHT22;1910;49.042;9.028;2022-09-03T00:39:35;18.50;85.50
3790;DHT22;1910;49.042;9.028;2022-09-03T00:42:28;18.60;85.60
3790;DHT22;1910;49.042;9.028;2022-09-03T00:48:23;18.40;85.70
3790;DHT22;1910;49.042;9.028;2022-09-03T00:54:05;18.50;86.10
3790;DHT22;1910;49.042;9.028;2022-09-03T00:59:42;18.40;87.00
3790;DHT22;1910;49.042;9.028;2022-09-03T01:02:50;18.40;87.20
3790;DHT22;1910;49.042;9.028;2022-09-03T01:08:09;18.30;87.40
3790;DHT22;1910;49.042;9.028;2022-09-03T01:11:17;18.10;87.90
3790;DHT22;1910;49.042;9.028;2022-09-03T01:13:51;18.10;88.80
3790;DHT22;1910;49.042;9.028;2022-09-03T01:16:42;18.00;89.40
3790;DHT22;1910;49.042;9.028;2022-09-03T01:30:39;18.00;90.00
3790;DHT22;1910;49.042;9.028;2022-09-03T01:36:20;18.00;90.10
3790;DHT22;1910;49.042;9.028;2022-09-03T01:38:55;18.00;90.50
3790;DHT22;1910;49.042;9.028;2022-09-03T01:44:58;18.00;90.70
3790;DHT22;1910;49.042;9.028;2022-09-03T01:47:55;18.00;90.70
3790;DHT22;1910;49.042;9.028;2022-09-03T01:53:12;18.00;90.80
3790;DHT22;1910;49.042;9.028;2022-09-03T01:56:15;17.90;90.90
3790;DHT22;1910;49.042;9.028;2022-09-03T01:58:48;17.90;91.10
3790;DHT22;1910;49.042;9.028;2022-09-03T02:01:25;17.90;91.20
3790;DHT22;1910;49.042;9.028;2022-09-03T02:03:53;17.90;91.20
3790;DHT22;1910;49.042;9.028;2022-09-03T02:06:23;17.90;91.50
3790;DHT22;1910;49.042;9.028;2022-09-03T02:08:49;17.80;92.50
3790;DHT22;1910;49.042;9.028;2022-09-03T02:13:44;17.50;92.90
3790;DHT22;1910;49.042;9.028;2022-09-03T02:16:21;17.50;93.30
3790;DHT22;1910;49.042;9.028;2022-09-03T02:18:51;19.70;93.70
3790;DHT22;1910;49.042;9.028;2022-09-03T02:21:22;17.90;92.10
3790;DHT22;1910;49.042;9.028;2022-09-03T02:23:48;17.80;92.70
3790;DHT22;1910;49.042;9.028;2022-09-03T02:26:22;17.90;92.10
3790;DHT22;1910;49.042;9.028;2022-09-03T02:28:50;17.90;92.10
3790;DHT22;1910;49.042;9.028;2022-09-03T02:31:16;17.80;92.00
3790;DHT22;1910;49.042;9.028;2022-09-03T02:33:44;17.80;92.20
3790;DHT22;1910;49.042;9.028;2022-09-03T02:36:12;17.80;92.20
3790;DHT22;1910;49.042;9.028;2022-09-03T02:38:42;17.80;92.30
3790;DHT22;1910;49.042;9.028;2022-09-03T02:41:07;17.80;92.40
3790;DHT22;1910;49.042;9.028;2022-09-03T02:44:01;17.80;92.40
3790;DHT22;1910;49.042;9.028;2022-09-03T02:46:43;17.80;93.00
3790;DHT22;1910;49.042;9.028;2022-09-03T02:49:09;17.60;93.70
3790;DHT22;1910;49.042;9.028;2022-09-03T02:51:37;18.90;94.20
3790;DHT22;1910;49.042;9.028;2022-09-03T02:54:03;17.60;93.40
3790;DHT22;1910;49.042;9.028;2022-09-03T02:56:28;17.60;93.40
3790;DHT22;1910;49.042;9.028;2022-09-03T02:58:54;17.50;94.50
3790;DHT22;1910;49.042;9.028;2022-09-03T03:01:20;17.20;96.40
3790;DHT22;1910;49.042;9.028;2022-09-03T03:06:12;16.80;98.50
3790;DHT22;1910;49.042;9.028;2022-09-03T03:08:38;16.70;99.90
3790;DHT22;1910;49.042;9.028;2022-09-03T03:11:04;16.50;99.90
3790;DHT22;1910;49.042;9.028;2022-09-03T03:15:58;16.50;99.90
3790;DHT22;1910;49.042;9.028;2022-09-03T03:18:23;16.60;99.90
3790;DHT22;1910;49.042;9.028;2022-09-03T03:20:49;16.70;99.90
3790;DHT22;1910;49.042;9.028;2022-09-03T03:23:15;16.70;99.90
3790;DHT22;1910;49.042;9.028;2022-09-03T03:25:41;17.20;99.90
3790;DHT22;1910;49.042;9.028;2022-09-03T03:28:07;16.60;99.90
3790;DHT22;1910;49.042;9.028;2022-09-03T03:30:35;16.40;99.90
3790;DHT22;1910;49.042;9.028;2022-09-03T03:33:01;16.30;99.90
3790;DHT22;1910;49.042;9.028;2022-09-03T03:35:26;16.40;99.90
3790;DHT22;1910;49.042;9.028;2022-09-03T03:37:52;16.30;99.90
3790;DHT22;1910;49.042;9.028;2022-09-03T03:40:18;16.20;99.90
3790;DHT22;1910;49.042;9.028;2022-09-03T03:42:44;16.20;99.90
3790;DHT22;1910;49.042;9.028;2022-09-03T03:45:10;16.10;99.90
3790;DHT22;1910;49.042;9.028;2022-09-03T03:47:36;16.10;99.90
3790;DHT22;1910;49.042;9.028;2022-09-03T03:50:02;16.10;99.90
3790;DHT22;1910;49.042;9.028;2022-09-03T03:52:28;16.20;99.90
3790;DHT22;1910;49.042;9.028;2022-09-03T03:54:54;16.20;99.90
3790;DHT22;1910;49.042;9.028;2022-09-03T03:57:20;16.30;99.90
3790;DHT22;1910;49.042;9.028;2022-09-03T03:59:46;17.20;99.90
3790;DHT22;1910;49.042;9.028;2022-09-03T04:02:12;16.30;99.90
3790;DHT22;1910;49.042;9.028;2022-09-03T04:04:38;16.30;99.90
3790;DHT22;1910;49.042;9.028;2022-09-03T04:09:29;16.30;99.90
3790;DHT22;1910;49.042;9.028;2022-09-03T04:11:55;16.40;99.90
3790;DHT22;1910;49.042;9.028;2022-09-03T04:14:24;18.00;99.90
3790;DHT22;1910;49.042;9.028;2022-09-03T04:16:50;16.50;99.90
3790;DHT22;1910;49.042;9.028;2022-09-03T04:19:16;16.50;99.90
3790;DHT22;1910;49.042;9.028;2022-09-03T04:21:42;16.50;99.90
3790;DHT22;1910;49.042;9.028;2022-09-03T04:24:08;16.40;99.90
3790;DHT22;1910;49.042;9.028;2022-09-03T04:26:35;16.40;99.90
3790;DHT22;1910;49.042;9.028;2022-09-03T04:29:06;16.50;99.90
3790;DHT22;1910;49.042;9.028;2022-09-03T04:31:33;16.70;99.90
3790;DHT22;1910;49.042;9.028;2022-09-03T04:33:59;16.80;99.90
3790;DHT22;1910;49.042;9.028;2022-09-03T04:36:27;16.80;99.90
3790;DHT22;1910;49.042;9.028;2022-09-03T04:38:54;16.80;99.90
3790;DHT22;1910;49.042;9.028;2022-09-03T04:41:22;16.80;99.90
3790;DHT22;1910;49.042;9.028;2022-09-03T04:43:53;16.80;99.90
3790;DHT22;1910;49.042;9.028;2022-09-03T04:46:20;16.70;99.90
3790;DHT22;1910;49.042;9.028;2022-09-03T04:48:48;16.80;99.90
3790;DHT22;1910;49.042;9.028;2022-09-03T04:51:16;17.00;99.90
3790;DHT22;1910;49.042;9.028;2022-09-03T04:53:45;16.60;99.90
3790;DHT22;1910;49.042;9.028;2022-09-03T04:56:16;16.70;99.90
3790;DHT22;1910;49.042;9.028;2022-09-03T04:58:43;16.70;99.90
3790;DHT22;1910;49.042;9.028;2022-09-03T05:01:10;16.80;99.90
3790;DHT22;1910;49.042;9.028;2022-09-03T05:03:36;17.00;99.90
3790;DHT22;1910;49.042;9.028;2022-09-03T05:06:02;17.20;99.90
3790;DHT22;1910;49.042;9.028;2022-09-03T05:08:30;17.20;99.90
3790;DHT22;1910;49.042;9.028;2022-09-03T05:10:59;17.30;99.90
3790;DHT22;1910;49.042;9.028;2022-09-03T05:13:26;17.40;99.90
3790;DHT22;1910;49.042;9.028;2022-09-03T05:15:57;17.30;99.90
3790;DHT22;1910;49.042;9.028;2022-09-03T05:18:23;17.20;99.90
3790;DHT22;1910;49.042;9.028;2022-09-03T05:20:57;16.90;99.90
3790;DHT22;1910;49.042;9.028;2022-09-03T05:23:23;16.90;99.90
3790;DHT22;1910;49.042;9.028;2022-09-03T05:25:56;16.80;99.90
3790;DHT22;1910;49.042;9.028;2022-09-03T05:28:24;17.00;99.90
3790;DHT22;1910;49.042;9.028;2022-09-03T05:33:47;17.50;99.90
3790;DHT22;1910;49.042;9.028;2022-09-03T05:36:18;17.90;99.90
3790;DHT22;1910;49.042;9.028;2022-09-03T05:38:47;17.80;99.90
3790;DHT22;1910;49.042;9.028;2022-09-03T05:41:16;17.10;99.90
3790;DHT22;1910;49.042;9.028;2022-09-03T05:43:50;17.10;99.90
3790;DHT22;1910;49.042;9.028;2022-09-03T05:46:28;17.10;99.90
3790;DHT22;1910;49.042;9.028;2022-09-03T05:49:00;19.20;99.90
3790;DHT22;1910;49.042;9.028;2022-09-03T05:51:27;18.90;99.90
3790;DHT22;1910;49.042;9.028;2022-09-03T05:53:53;18.20;99.90
3790;DHT22;1910;49.042;9.028;2022-09-03T05:56:21;18.40;99.90
3790;DHT22;1910;49.042;9.028;2022-09-03T05:58:49;18.80;99.90
3790;DHT22;1910;49.042;9.028;2022-09-03T06:01:23;18.80;99.90
3790;DHT22;1910;49.042;9.028;2022-09-03T06:04:00;19.70;99.90
3790;DHT22;1910;49.042;9.028;2022-09-03T06:06:27;20.60;99.90
3790;DHT22;1910;49.042;9.028;2022-09-03T06:08:58;23.10;99.90
3790;DHT22;1910;49.042;9.028;2022-09-03T06:11:25;20.80;99.90
3790;DHT22;1910;49.042;9.028;2022-09-03T06:13:56;20.80;99.90
3790;DHT22;1910;49.042;9.028;2022-09-03T06:16:22;21.30;99.90
3790;DHT22;1910;49.042;9.028;2022-09-03T06:18:48;22.50;98.60
3790;DHT22;1910;49.042;9.028;2022-09-03T06:23:40;21.80;96.00
3790;DHT22;1910;49.042;9.028;2022-09-03T06:26:11;21.80;96.30
3790;DHT22;1910;49.042;9.028;2022-09-03T06:28:41;21.80;96.20
3790;DHT22;1910;49.042;9.028;2022-09-03T06:31:12;22.00;96.30
3790;DHT22;1910;49.042;9.028;2022-09-03T06:36:08;21.90;95.70
3790;DHT22;1910;49.042;9.028;2022-09-03T06:38:35;21.70;95.60
3790;DHT22;1910;49.042;9.028;2022-09-03T06:41:10;21.40;96.60
3790;DHT22;1910;49.042;9.028;2022-09-03T06:43:41;21.00;97.40
3790;DHT22;1910;49.042;9.028;2022-09-03T06:46:13;20.80;98.10
3790;DHT22;1910;49.042;9.028;2022-09-03T06:48:58;20.70;98.30
3790;DHT22;1910;49.042;9.028;2022-09-03T06:51:26;20.50;99.40
3790;DHT22;1910;49.042;9.028;2022-09-03T06:53:54;20.50;99.80
3790;DHT22;1910;49.042;9.028;2022-09-03T06:56:24;20.20;99.90
3790;DHT22;1910;49.042;9.028;2022-09-03T06:58:57;20.30;99.90
3790;DHT22;1910;49.042;9.028;2022-09-03T07:01:24;20.50;99.60
3790;DHT22;1910;49.042;9.028;2022-09-03T07:03:55;20.60;99.30
3790;DHT22;1910;49.042;9.028;2022-09-03T07:06:23;20.50;98.90
3790;DHT22;1910;49.042;9.028;2022-09-03T07:08:49;20.40;99.80
3790;DHT22;1910;49.042;9.028;2022-09-03T07:11:16;20.20;99.80
3790;DHT22;1910;49.042;9.028;2022-09-03T07:13:46;20.20;99.90
3790;DHT22;1910;49.042;9.028;2022-09-03T07:16:19;20.40;99.90
3790;DHT22;1910;49.042;9.028;2022-09-03T07:18:46;20.80;99.70
3790;DHT22;1910;49.042;9.028;2022-09-03T07:21:15;20.90;98.90
3790;DHT22;1910;49.042;9.028;2022-09-03T07:23:41;20.80;98.90
3790;DHT22;1910;49.042;9.028;2022-09-03T07:26:12;20.90;99.80
3790;DHT22;1910;49.042;9.028;2022-09-03T07:28:39;20.90;99.90
3790;DHT22;1910;49.042;9.028;2022-09-03T07:31:17;20.40;99.90
3790;DHT22;1910;49.042;9.028;2022-09-03T07:33:44;20.30;99.90
3790;DHT22;1910;49.042;9.028;2022-09-03T07:36:15;20.30;99.90
3790;DHT22;1910;49.042;9.028;2022-09-03T07:38:42;20.30;99.90
3790;DHT22;1910;49.042;9.028;2022-09-03T07:41:11;20.00;99.90
3790;DHT22;1910;49.042;9.028;2022-09-03T07:43:40;19.90;99.90
3790;DHT22;1910;49.042;9.028;2022-09-03T07:46:08;20.20;99.90
3790;DHT22;1910;49.042;9.028;2022-09-03T07:48:40;20.30;99.90
3790;DHT22;1910;49.042;9.028;2022-09-03T07:51:07;20.90;99.90
3790;DHT22;1910;49.042;9.028;2022-09-03T07:53:34;20.90;99.90
3790;DHT22;1910;49.042;9.028;2022-09-03T07:56:01;20.90;99.90
3790;DHT22;1910;49.042;9.028;2022-09-03T07:58:31;21.10;99.90
3790;DHT22;1910;49.042;9.028;2022-09-03T08:00:57;21.70;99.90
3790;DHT22;1910;49.042;9.028;2022-09-03T08:05:49;23.00;99.10
3790;DHT22;1910;49.042;9.028;2022-09-03T08:15:37;29.30;79.90
3790;DHT22;1910;49.042;9.028;2022-09-03T08:18:05;30.70;76.90
3790;DHT22;1910;49.042;9.028;2022-09-03T08:23:00;27.50;73.90
3790;DHT22;1910;49.042;9.028;2022-09-03T08:32:45;25.50;79.50
3790;DHT22;1910;49.042;9.028;2022-09-03T08:37:41;24.80;82.80
3790;DHT22;1910;49.042;9.028;2022-09-03T08:40:08;24.00;85.50
3790;DHT22;1910;49.042;9.028;2022-09-03T08:43:22;23.60;88.80
3790;DHT22;1910;49.042;9.028;2022-09-03T08:45:33;23.40;90.60
3790;DHT22;1910;49.042;9.028;2022-09-03T08:48:17;23.20;91.80
3790;DHT22;1910;49.042;9.028;2022-09-03T08:50:47;23.50;91.30
3790;DHT22;1910;49.042;9.028;2022-09-03T08:53:27;23.80;90.90
3790;DHT22;1910;49.042;9.028;2022-09-03T08:56:06;23.10;91.60
3790;DHT22;1910;49.042;9.028;2022-09-03T08:58:34;23.00;92.30
3790;DHT22;1910;49.042;9.028;2022-09-03T09:14:49;22.10;96.60
3790;DHT22;1910;49.042;9.028;2022-09-03T09:22:43;23.20;96.90
3790;DHT22;1910;49.042;9.028;2022-09-03T09:25:14;23.50;96.60
3790;DHT22;1910;49.042;9.028;2022-09-03T09:30:22;23.10;96.70
3790;DHT22;1910;49.042;9.028;2022-09-03T09:32:48;22.80;97.60
3790;DHT22;1910;49.042;9.028;2022-09-03T09:35:14;22.50;97.80
3790;DHT22;1910;49.042;9.028;2022-09-03T09:37:56;22.50;98.60
3790;DHT22;1910;49.042;9.028;2022-09-03T09:40:31;22.50;99.20
3790;DHT22;1910;49.042;9.028;2022-09-03T09:45:42;24.90;97.30
3790;DHT22;1910;49.042;9.028;2022-09-03T09:50:47;25.80;94.40
3790;DHT22;1910;49.042;9.028;2022-09-03T09:53:13;25.90;93.80
3790;DHT22;1910;49.042;9.028;2022-09-03T09:55:53;25.70;94.20
3790;DHT22;1910;49.042;9.028;2022-09-03T09:58:21;25.60;94.60
3790;DHT22;1910;49.042;9.028;2022-09-03T10:01:05;25.50;95.20
3790;DHT22;1910;49.042;9.028;2022-09-03T10:03:54;25.70;94.60
3790;DHT22;1910;49.042;9.028;2022-09-03T10:06:26;26.20;94.60
3790;DHT22;1910;49.042;9.028;2022-09-03T10:09:19;27.50;93.20
3790;DHT22;1910;49.042;9.028;2022-09-03T10:14:38;28.50;85.70
3790;DHT22;1910;49.042;9.028;2022-09-03T10:17:21;28.50;87.40
3790;DHT22;1910;49.042;9.028;2022-09-03T10:20:06;28.00;86.30
3790;DHT22;1910;49.042;9.028;2022-09-03T10:25:50;26.70;90.70
3790;DHT22;1910;49.042;9.028;2022-09-03T10:28:20;26.10;91.50
3790;DHT22;1910;49.042;9.028;2022-09-03T10:31:14;26.30;92.10
3790;DHT22;1910;49.042;9.028;2022-09-03T10:33:52;26.20;91.50
3790;DHT22;1910;49.042;9.028;2022-09-03T10:36:25;26.10;91.60
3790;DHT22;1910;49.042;9.028;2022-09-03T10:39:21;26.00;92.40
3790;DHT22;1910;49.042;9.028;2022-09-03T10:42:02;26.60;91.50
3790;DHT22;1910;49.042;9.028;2022-09-03T10:44:41;26.60;91.90
3790;DHT22;1910;49.042;9.028;2022-09-03T10:50:16;26.60;91.50
3790;DHT22;1910;49.042;9.028;2022-09-03T10:56:25;26.20;91.60
3790;DHT22;1910;49.042;9.028;2022-09-03T10:58:59;25.50;91.90
3790;DHT22;1910;49.042;9.028;2022-09-03T11:07:06;25.30;93.00
3790;DHT22;1910;49.042;9.028;2022-09-03T11:10:36;25.30;92.10
3790;DHT22;1910;49.042;9.028;2022-09-03T11:12:54;25.30;92.70
3790;DHT22;1910;49.042;9.028;2022-09-03T11:15:33;25.70;92.50
3790;DHT22;1910;49.042;9.028;2022-09-03T11:18:14;25.70;92.80
3790;DHT22;1910;49.042;9.028;2022-09-03T11:20:41;26.00;91.60
3790;DHT22;1910;49.042;9.028;2022-09-03T11:23:09;26.10;91.30
3790;DHT22;1910;49.042;9.028;2022-09-03T11:25:42;26.20;91.00
3790;DHT22;1910;49.042;9.028;2022-09-03T11:34:32;26.70;89.20
3790;DHT22;1910;49.042;9.028;2022-09-03T11:37:17;26.80;87.60
3790;DHT22;1910;49.042;9.028;2022-09-03T11:39:44;26.80;87.50
3790;DHT22;1910;49.042;9.028;2022-09-03T11:42:37;26.80;88.00
3790;DHT22;1910;49.042;9.028;2022-09-03T11:45:32;26.90;87.70
3790;DHT22;1910;49.042;9.028;2022-09-03T11:47:59;27.10;87.30
3790;DHT22;1910;49.042;9.028;2022-09-03T11:50:31;26.90;87.10
3790;DHT22;1910;49.042;9.028;2022-09-03T11:53:23;26.50;87.50
3790;DHT22;1910;49.042;9.028;2022-09-03T11:58:37;25.60;90.30
3790;DHT22;1910;49.042;9.028;2022-09-03T12:01:09;25.40;90.80
3790;DHT22;1910;49.042;9.028;2022-09-03T12:03:52;24.80;91.70
3790;DHT22;1910;49.042;9.028;2022-09-03T12:06:29;24.70;92.50
3790;DHT22;1910;49.042;9.028;2022-09-03T12:12:03;24.40;93.70
3790;DHT22;1910;49.042;9.028;2022-09-03T12:19:53;23.90;95.30
3790;DHT22;1910;49.042;9.028;2022-09-03T12:22:21;23.60;95.60
3790;DHT22;1910;49.042;9.028;2022-09-03T12:24:48;23.60;96.10
3790;DHT22;1910;49.042;9.028;2022-09-03T12:27:18;23.70;96.70
3790;DHT22;1910;49.042;9.028;2022-09-03T12:29:55;23.90;99.40
3790;DHT22;1910;49.042;9.028;2022-09-03T12:32:32;23.60;99.90
3790;DHT22;1910;49.042;9.028;2022-09-03T12:37:36;23.70;99.90
3790;DHT22;1910;49.042;9.028;2022-09-03T12:40:02;23.60;99.90
3790;DHT22;1910;49.042;9.028;2022-09-03T12:42:30;23.60;99.90
3790;DHT22;1910;49.042;9.028;2022-09-03T12:45:05;23.40;99.90
3790;DHT22;1910;49.042;9.028;2022-09-03T12:47:37;23.50;99.90
3790;DHT22;1910;49.042;9.028;2022-09-03T12:50:10;23.70;99.90
3790;DHT22;1910;49.042;9.028;2022-09-03T12:55:27;23.80;99.90
3790;DHT22;1910;49.042;9.028;2022-09-03T12:58:04;24.00;99.90
3790;DHT22;1910;49.042;9.028;2022-09-03T13:00:36;24.60;99.90
3790;DHT22;1910;49.042;9.028;2022-09-03T13:03:06;25.00;99.90
3790;DHT22;1910;49.042;9.028;2022-09-03T13:05:51;25.50;99.90
3790;DHT22;1910;49.042;9.028;2022-09-03T13:08:25;25.80;99.20
3790;DHT22;1910;49.042;9.028;2022-09-03T13:11:00;26.20;96.90
3790;DHT22;1910;49.042;9.028;2022-09-03T13:13:31;26.20;96.10
3790;DHT22;1910;49.042;9.028;2022-09-03T13:25:11;22.60;99.90
3790;DHT22;1910;49.042;9.028;2022-09-03T13:30:44;21.50;99.90
3790;DHT22;1910;49.042;9.028;2022-09-03T13:33:25;21.50;99.90
3790;DHT22;1910;49.042;9.028;2022-09-03T13:36:02;21.70;99.90
3790;DHT22;1910;49.042;9.028;2022-09-03T13:38:42;21.80;99.90
3790;DHT22;1910;49.042;9.028;2022-09-03T13:41:17;21.70;99.90
3790;DHT22;1910;49.042;9.028;2022-09-03T13:44:00;21.70;99.90
3790;DHT22;1910;49.042;9.028;2022-09-03T13:46:56;21.60;99.90
3790;DHT22;1910;49.042;9.028;2022-09-03T13:52:25;21.40;99.90
3790;DHT22;1910;49.042;9.028;2022-09-03T13:54:59;21.30;99.90
3790;DHT22;1910;49.042;9.028;2022-09-03T13:57:48;21.40;99.90
3790;DHT22;1910;49.042;9.028;2022-09-03T14:00:25;21.40;99.90
3790;DHT22;1910;49.042;9.028;2022-09-03T14:03:24;21.20;99.90
3790;DHT22;1910;49.042;9.028;2022-09-03T14:06:18;20.90;99.90
3790;DHT22;1910;49.042;9.028;2022-09-03T14:17:35;20.90;99.90
3790;DHT22;1910;49.042;9.028;2022-09-03T14:20:09;20.70;99.90
3790;DHT22;1910;49.042;9.028;2022-09-03T14:25:19;20.50;99.90
3790;DHT22;1910;49.042;9.028;2022-09-03T14:27:45;20.30;99.90
3790;DHT22;1910;49.042;9.028;2022-09-03T14:33:09;20.20;99.90
3790;DHT22;1910;49.042;9.028;2022-09-03T14:38:49;20.00;99.90
3790;DHT22;1910;49.042;9.028;2022-09-03T14:44:26;19.50;99.90
3790;DHT22;1910;49.042;9.028;2022-09-03T14:47:03;19.50;99.90
3790;DHT22;1910;49.042;9.028;2022-09-03T15:03:38;19.00;99.90
3790;DHT22;1910;49.042;9.028;2022-09-03T15:11:22;19.10;99.90
3790;DHT22;1910;49.042;9.028;2022-09-03T15:14:12;18.80;99.90
3790;DHT22;1910;49.042;9.028;2022-09-03T15:17:00;18.60;99.90
3790;DHT22;1910;49.042;9.028;2022-09-03T15:19:41;18.60;99.90
3790;DHT22;1910;49.042;9.028;2022-09-03T15:30:14;18.70;99.90
3790;DHT22;1910;49.042;9.028;2022-09-03T15:33:10;19.00;99.90
3790;DHT22;1910;49.042;9.028;2022-09-03T15:38:07;19.70;99.90
3790;DHT22;1910;49.042;9.028;2022-09-03T15:40:47;19.60;99.90
3790;DHT22;1910;49.042;9.028;2022-09-03T15:43:21;19.60;99.90
3790;DHT22;1910;49.042;9.028;2022-09-03T15:45:56;19.70;99.90
3790;DHT22;1910;49.042;9.028;2022-09-03T15:51:02;19.70;99.90
3790;DHT22;1910;49.042;9.028;2022-09-03T15:56:19;20.00;99.90
3790;DHT22;1910;49.042;9.028;2022-09-03T16:02:27;20.10;99.90
3790;DHT22;1910;49.042;9.028;2022-09-03T16:07:42;20.10;99.90
3790;DHT22;1910;49.042;9.028;2022-09-03T16:10:15;20.10;99.90
3790;DHT22;1910;49.042;9.028;2022-09-03T16:15:27;20.30;99.90
3790;DHT22;1910;49.042;9.028;2022-09-03T16:18:26;20.50;99.90
3790;DHT22;1910;49.042;9.028;2022-09-03T16:21:03;20.30;99.90
3790;DHT22;1910;49.042;9.028;2022-09-03T16:23:55;20.40;99.90
3790;DHT22;1910;49.042;9.028;2022-09-03T16:28:54;20.60;99.90
3790;DHT22;1910;49.042;9.028;2022-09-03T16:34:49;20.60;99.90
3790;DHT22;1910;49.042;9.028;2022-09-03T16:37:33;20.50;99.90
3790;DHT22;1910;49.042;9.028;2022-09-03T16:43:30;20.90;99.90
3790;DHT22;1910;49.042;9.028;2022-09-03T16:46:23;21.00;99.90
3790;DHT22;1910;49.042;9.028;2022-09-03T16:49:21;20.80;99.90
3790;DHT22;1910;49.042;9.028;2022-09-03T16:52:05;20.60;99.90
3790;DHT22;1910;49.042;9.028;2022-09-03T17:00:26;21.00;99.90
3790;DHT22;1910;49.042;9.028;2022-09-03T17:05:52;21.30;99.90
3790;DHT22;1910;49.042;9.028;2022-09-03T17:08:47;21.30;99.90
3790;DHT22;1910;49.042;9.028;2022-09-03T17:17:03;21.50;99.90
3790;DHT22;1910;49.042;9.028;2022-09-03T17:19:51;21.70;99.90
3790;DHT22;1910;49.042;9.028;2022-09-03T17:25:27;21.40;99.90
3790;DHT22;1910;49.042;9.028;2022-09-03T17:28:16;21.10;99.90
3790;DHT22;1910;49.042;9.028;2022-09-03T17:31:08;20.80;99.90
3790;DHT22;1910;49.042;9.028;2022-09-03T17:36:25;20.20;99.90
3790;DHT22;1910;49.042;9.028;2022-09-03T17:39:22;19.90;99.90
3790;DHT22;1910;49.042;9.028;2022-09-03T17:41:50;19.70;99.90
3790;DHT22;1910;49.042;9.028;2022-09-03T17:44:49;19.30;99.90
3790;DHT22;1910;49.042;9.028;2022-09-03T17:47:27;19.00;99.90
3790;DHT22;1910;49.042;9.028;2022-09-03T17:50:04;18.70;99.90
3790;DHT22;1910;49.042;9.028;2022-09-03T17:52:37;18.60;99.90
3790;DHT22;1910;49.042;9.028;2022-09-03T17:58:13;18.30;99.90
3790;DHT22;1910;49.042;9.028;2022-09-03T18:03:44;18.10;99.90
3790;DHT22;1910;49.042;9.028;2022-09-03T18:09:22;18.00;99.90
3790;DHT22;1910;49.042;9.028;2022-09-03T18:12:04;17.90;99.90
3790;DHT22;1910;49.042;9.028;2022-09-03T18:14:33;17.90;99.90
3790;DHT22;1910;49.042;9.028;2022-09-03T18:19:59;17.80;99.90
3790;DHT22;1910;49.042;9.028;2022-09-03T18:25:37;17.70;99.90
3790;DHT22;1910;49.042;9.028;2022-09-03T18:28:34;17.70;99.90
3790;DHT22;1910;49.042;9.028;2022-09-03T18:31:20;17.70;99.90
3790;DHT22;1910;49.042;9.028;2022-09-03T18:34:04;17.60;99.90
3790;DHT22;1910;49.042;9.028;2022-09-03T18:36:48;17.60;99.90
3790;DHT22;1910;49.042;9.028;2022-09-03T18:39:32;17.50;99.90
3790;DHT22;1910;49.042;9.028;2022-09-03T18:45:51;17.50;99.90
3790;DHT22;1910;49.042;9.028;2022-09-03T18:54:50;17.40;99.90
3790;DHT22;1910;49.042;9.028;2022-09-03T18:58:11;17.40;99.90
3790;DHT22;1910;49.042;9.028;2022-09-03T19:10:54;17.30;99.90
3790;DHT22;1910;49.042;9.028;2022-09-03T19:13:40;17.30;99.90
3790;DHT22;1910;49.042;9.028;2022-09-03T19:19:44;17.30;99.90
3790;DHT22;1910;49.042;9.028;2022-09-03T19:22:34;17.20;99.90
3790;DHT22;1910;49.042;9.028;2022-09-03T19:25:19;17.30;99.90
3790;DHT22;1910;49.042;9.028;2022-09-03T19:28:24;17.20;99.90
3790;DHT22;1910;49.042;9.028;2022-09-03T19:31:24;17.20;99.90
3790;DHT22;1910;49.042;9.028;2022-09-03T19:37:23;17.00;99.90
3790;DHT22;1910;49.042;9.028;2022-09-03T19:40:33;16.90;99.90
3790;DHT22;1910;49.042;9.028;2022-09-03T19:43:43;16.80;99.90
3790;DHT22;1910;49.042;9.028;2022-09-03T19:46:54;16.80;99.90
3790;DHT22;1910;49.042;9.028;2022-09-03T19:50:11;16.60;99.90
3790;DHT22;1910;49.042;9.028;2022-09-03T19:53:00;16.50;99.90
3790;DHT22;1910;49.042;9.028;2022-09-03T19:55:53;16.40;99.90
3790;DHT22;1910;49.042;9.028;2022-09-03T19:58:57;16.30;99.90
3790;DHT22;1910;49.042;9.028;2022-09-03T20:01:43;16.30;99.90
3790;DHT22;1910;49.042;9.028;2022-09-03T20:04:38;16.30;99.90
3790;DHT22;1910;49.042;9.028;2022-09-03T20:07:24;16.30;99.90
3790;DHT22;1910;49.042;9.028;2022-09-03T20:10:11;16.30;99.90
3790;DHT22;1910;49.042;9.028;2022-09-03T20:12:59;16.20;99.90
3790;DHT22;1910;49.042;9.028;2022-09-03T20:15:35;16.30;99.90
3790;DHT22;1910;49.042;9.028;2022-09-03T20:18:46;16.30;99.90
3790;DHT22;1910;49.042;9.028;2022-09-03T20:23:52;16.20;99.90
3790;DHT22;1910;49.042;9.028;2022-09-03T20:26:50;16.20;99.90
3790;DHT22;1910;49.042;9.028;2022-09-03T20:34:56;16.20;99.90
3790;DHT22;1910;49.042;9.028;2022-09-03T20:38:02;16.10;99.90
3790;DHT22;1910;49.042;9.028;2022-09-03T20:40:44;16.10;99.90
3790;DHT22;1910;49.042;9.028;2022-09-03T20:51:11;16.10;99.90
3790;DHT22;1910;49.042;9.028;2022-09-03T21:07:37;16.10;99.90
3790;DHT22;1910;49.042;9.028;2022-09-03T21:15:59;16.00;99.90
3790;DHT22;1910;49.042;9.028;2022-09-03T21:19:17;16.00;99.90
3790;DHT22;1910;49.042;9.028;2022-09-03T21:21:49;16.00;99.90
3790;DHT22;1910;49.042;9.028;2022-09-03T21:24:35;16.00;99.90
3790;DHT22;1910;49.042;9.028;2022-09-03T21:27:11;16.00;99.90
3790;DHT22;1910;49.042;9.028;2022-09-03T21:29:43;15.90;99.90
3790;DHT22;1910;49.042;9.028;2022-09-03T21:35:20;15.90;99.90
3790;DHT22;1910;49.042;9.028;2022-09-03T21:37:58;15.90;99.90
3790;DHT22;1910;49.042;9.028;2022-09-03T21:40:27;15.90;99.90
3790;DHT22;1910;49.042;9.028;2022-09-03T21:48:57;15.80;99.90
3790;DHT22;1910;49.042;9.028;2022-09-03T21:54:24;15.80;99.90
3790;DHT22;1910;49.042;9.028;2022-09-03T22:00:04;15.80;99.90
3790;DHT22;1910;49.042;9.028;2022-09-03T22:02:31;15.70;99.90
3790;DHT22;1910;49.042;9.028;2022-09-03T22:04:58;15.70;99.90
3790;DHT22;1910;49.042;9.028;2022-09-03T22:10:16;15.70;99.90
3790;DHT22;1910;49.042;9.028;2022-09-03T22:15:44;15.70;99.90
3790;DHT22;1910;49.042;9.028;2022-09-03T22:18:29;15.70;99.90
3790;DHT22;1910;49.042;9.028;2022-09-03T22:23:46;15.80;99.90
3790;DHT22;1910;49.042;9.028;2022-09-03T22:26:48;15.70;99.90
3790;DHT22;1910;49.042;9.028;2022-09-03T22:29:45;15.70;99.90
3790;DHT22;1910;49.042;9.028;2022-09-03T22:35:03;15.60;99.90
3790;DHT22;1910;49.042;9.028;2022-09-03T22:46:11;16.00;99.90
3790;DHT22;1910;49.042;9.028;2022-09-03T22:49:13;16.20;99.90
3790;DHT22;1910;49.042;9.028;2022-09-03T22:57:09;16.40;99.90
3790;DHT22;1910;49.042;9.028;2022-09-03T22:59:41;16.40;99.90
3790;DHT22;1910;49.042;9.028;2022-09-03T23:10:29;16.40;99.90
3790;DHT22;1910;49.042;9.028;2022-09-03T23:15:30;16.00;99.90
3790;DHT22;1910;49.042;9.028;2022-09-03T23:18:07;16.00;99.90
3790;DHT22;1910;49.042;9.028;2022-09-03T23:20:37;16.00;99.90